Nome の空港の天気 - METARとTAF

Nome, Nome Airport ( PAOM / OME ) - アメリカ アラスカ州Nome
飛行場実況気象(Metar)
観測時間08/13 20:53 AKDT (08/14 04:53 UTC)
風向・風速西 5m/s
視程10km以上
天気現象
なし
気温14.4℃
湿度62%
気圧1018.9hPa
METARPAOM 140453Z 27010KT 10SM CLR 14/07 A3009 RMK AO2 SLP189 T01440072
過去の天気等 Google飛行場航空写真 Wunderground天気予報

過去48時間のMETAR

飛行場予報(TAF)
発表時間: 8/13 21:33 AKDT (8/14 05:33 UTC)
予報対象時間: 13日22時 AKDT ~ 14日22時 AKDT
風向・風速西 5m/s
視程10km以上
なし
PAOM 140533Z 1406/1506 27010KT P6SM SKC